Time;durP1;ratioP1;P1;durP2;ratioP2;P2;SDS_P1;SDS_P2;PMS_P1;PMS_P2;Temp;Humidity;BMP_temperature;BMP_pressure;BME280_temperature;BME280_humidity;BME280_pressure;Samples;Min_cycle;Max_cycle;Signal;HPM_P1;HPM_P2
2021/12/21 00:01:03;;;;;;;26.92;13.85;;;1.80;99.90;;;;;;5054305;28;20316;-68
2021/12/21 00:03:28;;;;;;;31.50;15.73;;;1.80;99.90;;;;;;5053992;28;20051;-68
2021/12/21 00:05:54;;;;;;;31.27;14.45;;;1.80;99.90;;;;;;5054257;28;20021;-67
2021/12/21 00:08:20;;;;;;;20.23;12.18;;;1.80;99.90;;;;;;5053921;28;20082;-67
2021/12/21 00:10:47;;;;;;;26.80;13.25;;;1.70;99.90;;;;;;5053726;28;20032;-69
2021/12/21 00:16:09;;;;;;;34.95;14.82;;;1.80;99.90;;;;;;5054559;28;20108;-66
2021/12/21 00:18:46;;;;;;;29.40;13.75;;;1.80;99.90;;;;;;5054249;28;20095;-68
2021/12/21 00:21:34;;;;;;;37.92;14.43;;;1.70;99.90;;;;;;5055512;28;20025;-69
2021/12/21 00:24:11;;;;;;;28.00;12.90;;;1.70;99.90;;;;;;5057414;28;20025;-68
2021/12/21 00:26:37;;;;;;;29.55;14.00;;;1.60;99.90;;;;;;5052807;28;20021;-68
2021/12/21 00:29:03;;;;;;;35.65;14.65;;;1.60;99.90;;;;;;5053577;28;20386;-69
2021/12/21 00:31:35;;;;;;;28.88;13.65;;;1.70;99.90;;;;;;5054291;28;20049;-67
2021/12/21 00:34:02;;;;;;;26.35;12.88;;;1.60;99.90;;;;;;5053750;28;20386;-68
2021/12/21 00:36:30;;;;;;;25.63;12.32;;;1.60;99.90;;;;;;5053895;28;20025;-68
2021/12/21 00:38:58;;;;;;;23.25;13.43;;;1.60;99.90;;;;;;5053724;28;20025;-69
2021/12/21 00:41:25;;;;;;;22.30;12.57;;;1.60;99.90;;;;;;5053507;28;20053;-69
2021/12/21 00:43:51;;;;;;;30.23;13.73;;;1.60;99.90;;;;;;5053781;28;20029;-68
2021/12/21 00:46:17;;;;;;;25.67;13.15;;;1.60;99.90;;;;;;5053731;28;20033;-69
2021/12/21 00:48:52;;;;;;;27.95;13.43;;;1.60;99.90;;;;;;5053617;28;20017;-69
2021/12/21 00:51:20;;;;;;;25.90;13.20;;;1.60;99.90;;;;;;5053359;28;20013;-68
2021/12/21 00:53:46;;;;;;;23.10;12.55;;;1.60;99.90;;;;;;5053707;28;20451;-67
2021/12/21 00:56:12;;;;;;;26.13;13.23;;;1.60;99.90;;;;;;5053562;28;20032;-68
2021/12/21 00:58:37;;;;;;;20.08;12.18;;;1.50;99.90;;;;;;5053398;28;20163;-68
2021/12/21 01:01:06;;;;;;;23.75;14.43;;;1.50;99.90;;;;;;5053066;28;20060;-68
2021/12/21 01:03:34;;;;;;;25.10;13.38;;;1.50;99.90;;;;;;5053455;28;20122;-67
2021/12/21 01:06:16;;;;;;;20.42;11.65;;;1.50;99.90;;;;;;5053249;28;20028;-68
2021/12/21 01:09:01;;;;;;;27.00;13.90;;;1.50;99.90;;;;;;5053494;28;20017;-69
2021/12/21 01:11:53;;;;;;;22.65;12.23;;;1.40;99.90;;;;;;5053538;28;20017;-68
2021/12/21 01:19:36;;;;;;;20.60;11.35;;;1.30;99.90;;;;;;5053173;28;20025;-67
2021/12/21 01:22:29;;;;;;;20.80;12.02;;;1.20;99.90;;;;;;5053021;28;20462;-68
2021/12/21 01:27:44;;;;;;;20.55;13.52;;;1.10;99.90;;;;;;5075110;22;20037;-72
2021/12/21 01:30:23;;;;;;;21.75;12.60;;;1.00;99.90;;;;;;5053253;28;20473;-71
2021/12/21 01:33:25;;;;;;;21.10;12.70;;;0.90;99.90;;;;;;5054008;28;20028;-71
2021/12/21 01:35:53;;;;;;;21.50;13.10;;;0.90;99.90;;;;;;5053837;28;20462;-73
2021/12/21 01:43:21;;;;;;;19.67;12.25;;;0.80;99.90;;;;;;5057903;28;20044;-71
2021/12/21 01:51:17;;;;;;;21.65;13.13;;;0.70;99.90;;;;;;5058030;28;20039;-73
2021/12/21 01:53:44;;;;;;;19.95;12.05;;;0.70;99.90;;;;;;5057265;28;20024;-72
2021/12/21 01:56:10;;;;;;;21.42;13.18;;;0.60;99.90;;;;;;5058301;28;20028;-72
2021/12/21 01:58:37;;;;;;;29.25;15.50;;;0.60;99.90;;;;;;5059046;28;20440;-73
2021/12/21 02:01:07;;;;;;;23.75;14.38;;;0.60;99.90;;;;;;5039034;28;20025;-73
2021/12/21 02:03:33;;;;;;;19.00;12.82;;;0.60;99.90;;;;;;5057417;28;20029;-72
2021/12/21 02:05:59;;;;;;;18.85;12.68;;;0.60;99.90;;;;;;5056845;28;20068;-73
2021/12/21 02:08:25;;;;;;;20.88;11.65;;;0.60;99.90;;;;;;5057084;28;20021;-74
2021/12/21 02:10:51;;;;;;;16.25;11.32;;;0.50;99.90;;;;;;5057077;28;20030;-73
2021/12/21 02:13:16;;;;;;;19.95;11.40;;;0.50;99.90;;;;;;5056826;28;20112;-73
2021/12/21 02:15:42;;;;;;;18.65;12.45;;;0.50;99.90;;;;;;5057660;28;20064;-74
2021/12/21 02:21:42;;;;;;;18.08;12.15;;;0.40;99.90;;;;;;5076151;28;20354;-74
2021/12/21 02:23:42;;;;;;;16.98;11.68;;;0.40;99.90;;;;;;5069379;28;20107;-73
2021/12/21 02:31:08;;;;;;;15.15;10.88;;;0.40;99.90;;;;;;5056873;28;20032;-71
2021/12/21 02:33:35;;;;;;;15.82;11.77;;;0.40;99.90;;;;;;5056651;28;20482;-73
2021/12/21 02:36:01;;;;;;;16.73;11.68;;;0.40;99.90;;;;;;5038515;28;20047;-72
2021/12/21 02:38:27;;;;;;;16.98;12.00;;;0.30;99.90;;;;;;5056894;28;20468;-72
2021/12/21 02:40:53;;;;;;;16.80;10.93;;;0.30;99.90;;;;;;5038458;28;20048;-73
2021/12/21 02:43:19;;;;;;;18.23;11.63;;;0.20;99.90;;;;;;5057360;28;20079;-72
2021/12/21 02:45:45;;;;;;;12.45;10.63;;;0.30;99.90;;;;;;5057602;28;20447;-72
2021/12/21 02:48:11;;;;;;;17.52;11.55;;;0.30;99.90;;;;;;5059617;28;20458;-73
2021/12/21 02:50:38;;;;;;;19.38;12.07;;;0.30;99.90;;;;;;5055578;28;20382;-72
2021/12/21 02:53:04;;;;;;;18.10;12.00;;;0.30;99.90;;;;;;5038100;28;20449;-72
2021/12/21 02:55:31;;;;;;;16.60;11.48;;;0.30;99.90;;;;;;5056133;28;20055;-72
2021/12/21 02:57:57;;;;;;;20.23;12.88;;;0.20;99.90;;;;;;5056029;28;20029;-72
2021/12/21 03:00:25;;;;;;;16.35;12.45;;;0.30;99.90;;;;;;5056648;28;20079;-73
2021/12/21 03:02:51;;;;;;;17.05;12.48;;;0.30;99.90;;;;;;5056801;28;20028;-73
2021/12/21 03:05:17;;;;;;;19.70;12.90;;;0.30;99.90;;;;;;5056742;28;20031;-71
2021/12/21 03:10:28;;;;;;;18.48;12.65;;;0.30;99.90;;;;;;5056716;28;20101;-72
2021/12/21 03:15:38;;;;;;;17.27;11.73;;;0.40;99.90;;;;;;5059991;28;20036;-72
2021/12/21 03:18:03;;;;;;;14.60;11.40;;;0.40;99.90;;;;;;5055919;28;20033;-72
2021/12/21 03:20:29;;;;;;;16.20;12.75;;;0.50;99.90;;;;;;5055304;28;20107;-73
2021/12/21 03:22:55;;;;;;;15.90;12.57;;;0.50;99.90;;;;;;5055854;28;20086;-72
2021/12/21 03:25:21;;;;;;;17.90;13.27;;;0.50;99.90;;;;;;5055348;28;20416;-71
2021/12/21 03:27:46;;;;;;;21.60;12.73;;;0.50;99.90;;;;;;5055328;28;20025;-73
2021/12/21 03:30:14;;;;;;;17.38;12.43;;;0.40;99.90;;;;;;5055861;28;20021;-73
2021/12/21 03:32:40;;;;;;;13.98;11.32;;;0.40;99.90;;;;;;5037483;28;20401;-72
2021/12/21 03:35:07;;;;;;;18.77;13.20;;;0.40;99.90;;;;;;5055490;28;20025;-73
2021/12/21 03:37:33;;;;;;;20.65;14.07;;;0.40;99.90;;;;;;5055012;28;20032;-71
2021/12/21 03:40:01;;;;;;;18.50;12.50;;;0.40;99.90;;;;;;5055205;28;20602;-72
2021/12/21 03:42:27;;;;;;;16.02;12.02;;;0.40;99.90;;;;;;5055004;28;20029;-73
2021/12/21 03:44:53;;;;;;;15.57;12.23;;;0.30;99.90;;;;;;5054764;28;20021;-72
2021/12/21 03:47:21;;;;;;;16.67;12.55;;;0.30;99.90;;;;;;5054873;28;20021;-73
2021/12/21 03:49:58;;;;;;;18.70;12.90;;;0.30;99.90;;;;;;5054764;28;20025;-72
2021/12/21 03:52:26;;;;;;;16.30;12.80;;;0.20;99.90;;;;;;5056593;28;20033;-73
2021/12/21 03:54:56;;;;;;;14.10;12.15;;;0.20;99.90;;;;;;5055788;28;20104;-73
2021/12/21 03:57:23;;;;;;;16.95;12.27;;;0.20;99.90;;;;;;5054683;28;20035;-72
2021/12/21 03:59:49;;;;;;;16.73;11.82;;;0.20;99.90;;;;;;5054659;28;20029;-72
2021/12/21 04:02:16;;;;;;;16.65;12.43;;;0.20;99.90;;;;;;5053726;28;20025;-72
2021/12/21 04:04:43;;;;;;;18.73;12.57;;;0.20;99.90;;;;;;5054409;28;20067;-73
2021/12/21 04:07:09;;;;;;;15.77;11.90;;;0.20;99.90;;;;;;5054652;28;20025;-73
2021/12/21 04:09:35;;;;;;;16.10;12.70;;;0.10;99.90;;;;;;5054512;28;20493;-72
2021/12/21 04:12:01;;;;;;;17.63;12.38;;;0.20;99.90;;;;;;5054367;28;20068;-71
2021/12/21 04:14:28;;;;;;;16.77;11.88;;;0.20;99.90;;;;;;5054618;28;20143;-72
2021/12/21 04:16:54;;;;;;;13.63;11.73;;;0.20;99.90;;;;;;5054166;28;20031;-72
2021/12/21 04:19:21;;;;;;;13.70;11.68;;;0.10;99.90;;;;;;5054250;28;20100;-73
2021/12/21 04:21:47;;;;;;;18.38;12.55;;;0.10;99.90;;;;;;5053993;28;20025;-73
2021/12/21 04:24:12;;;;;;;14.35;11.70;;;0.10;99.90;;;;;;5054081;28;20032;-73
2021/12/21 04:26:38;;;;;;;16.55;12.13;;;0.00;99.90;;;;;;5053675;28;20021;-73
2021/12/21 04:29:04;;;;;;;14.60;11.30;;;0.10;99.90;;;;;;5054081;28;20041;-73
2021/12/21 04:31:29;;;;;;;14.75;11.70;;;0.10;99.90;;;;;;5055591;28;20085;-73
2021/12/21 04:33:55;;;;;;;14.55;11.45;;;0.00;99.90;;;;;;5056532;28;20040;-72
2021/12/21 04:36:20;;;;;;;14.43;11.93;;;0.00;99.90;;;;;;5053774;28;20172;-73
2021/12/21 04:38:49;;;;;;;13.43;10.90;;;0.00;99.90;;;;;;5035932;28;20501;-72
2021/12/21 04:41:23;;;;;;;14.82;12.05;;;-0.10;99.90;;;;;;5053810;28;20112;-73
2021/12/21 04:43:50;;;;;;;17.85;12.32;;;-0.10;99.90;;;;;;5053619;28;20028;-73
2021/12/21 04:46:16;;;;;;;17.55;12.63;;;-0.20;99.90;;;;;;5053578;28;20017;-71
2021/12/21 04:48:41;;;;;;;20.05;12.55;;;-0.20;99.90;;;;;;5035594;28;20154;-72
2021/12/21 04:51:07;;;;;;;17.15;12.35;;;-0.20;99.90;;;;;;5053476;28;20044;-73
2021/12/21 04:53:33;;;;;;;15.75;12.63;;;-0.10;99.90;;;;;;5053584;28;20040;-73
2021/12/21 04:55:59;;;;;;;17.20;13.00;;;-0.10;99.90;;;;;;5053543;28;20029;-70
2021/12/21 04:58:25;;;;;;;14.55;11.93;;;-0.10;99.90;;;;;;5053598;28;20067;-71
2021/12/21 05:00:51;;;;;;;19.35;12.23;;;-0.10;99.90;;;;;;5054081;28;20028;-71
2021/12/21 05:03:18;;;;;;;14.55;11.20;;;-0.10;99.90;;;;;;5053658;28;20025;-72
2021/12/21 05:05:43;;;;;;;17.08;12.43;;;-0.10;99.90;;;;;;5054176;28;20040;-73
2021/12/21 05:08:11;;;;;;;17.02;12.15;;;-0.10;99.90;;;;;;5070944;28;20017;-73
2021/12/21 05:10:52;;;;;;;16.02;13.20;;;-0.10;99.90;;;;;;5070114;28;20079;-73
2021/12/21 05:13:21;;;;;;;18.75;13.20;;;-0.10;99.90;;;;;;5053237;28;20148;-73
2021/12/21 05:15:46;;;;;;;18.33;12.55;;;-0.10;99.90;;;;;;5053271;28;20061;-72
2021/12/21 05:18:14;;;;;;;19.80;12.95;;;0.00;99.90;;;;;;5053125;28;20448;-73
2021/12/21 05:20:40;;;;;;;17.85;11.88;;;0.00;99.90;;;;;;5035350;28;20131;-73
2021/12/21 05:23:07;;;;;;;18.95;12.52;;;0.00;99.90;;;;;;5052888;28;20604;-72
2021/12/21 05:25:34;;;;;;;13.82;11.80;;;0.00;99.90;;;;;;5035305;28;20071;-73
2021/12/21 05:28:00;;;;;;;16.73;11.95;;;0.00;99.90;;;;;;5052821;28;20029;-71
2021/12/21 05:30:27;;;;;;;18.60;12.77;;;0.00;99.90;;;;;;5035301;28;20021;-73
2021/12/21 05:32:55;;;;;;;14.43;11.35;;;0.00;99.90;;;;;;5053109;28;20074;-73
2021/12/21 05:35:22;;;;;;;16.95;11.68;;;0.10;99.90;;;;;;5053593;28;20389;-72
2021/12/21 05:37:50;;;;;;;15.60;12.05;;;0.00;99.90;;;;;;5052874;28;20079;-74
2021/12/21 05:40:17;;;;;;;14.98;11.30;;;0.00;99.90;;;;;;5053205;28;20465;-73
2021/12/21 05:42:46;;;;;;;17.13;12.25;;;0.10;99.90;;;;;;5052903;28;20036;-73
2021/12/21 05:45:14;;;;;;;16.33;12.55;;;0.10;99.90;;;;;;5053215;28;20539;-73
2021/12/21 05:47:40;;;;;;;18.10;13.00;;;0.10;99.90;;;;;;5053794;28;20033;-71
2021/12/21 05:50:10;;;;;;;15.55;11.65;;;0.10;99.90;;;;;;5054551;28;20051;-73
2021/12/21 05:52:36;;;;;;;18.02;11.73;;;0.00;99.90;;;;;;5036316;28;20110;-73
2021/12/21 05:55:04;;;;;;;15.77;11.93;;;0.00;99.90;;;;;;5052820;28;20485;-73
2021/12/21 05:57:29;;;;;;;17.65;12.75;;;-0.10;99.90;;;;;;5052732;28;20116;-72
2021/12/21 05:59:55;;;;;;;19.17;12.70;;;-0.10;99.90;;;;;;5052680;28;20102;-72
2021/12/21 06:02:21;;;;;;;20.88;13.35;;;-0.10;99.90;;;;;;5053135;28;20060;-73
2021/12/21 06:04:47;;;;;;;18.48;12.52;;;-0.20;99.90;;;;;;5035102;28;20021;-72
2021/12/21 06:07:12;;;;;;;18.55;12.52;;;-0.20;99.90;;;;;;5053179;28;20107;-72
2021/12/21 06:09:39;;;;;;;20.77;12.75;;;-0.20;99.90;;;;;;5052948;28;20438;-71
2021/12/21 06:12:13;;;;;;;20.08;12.93;;;-0.30;99.90;;;;;;5034882;28;20029;-69
2021/12/21 06:23:27;;;;;;;18.70;13.80;;;-0.30;99.90;;;;;;5053961;28;20032;-71
2021/12/21 06:25:56;;;;;;;18.73;12.93;;;-0.30;99.90;;;;;;5055269;28;20146;-74
2021/12/21 06:28:22;;;;;;;19.40;12.93;;;-0.30;99.90;;;;;;5056180;28;20036;-73
2021/12/21 06:30:48;;;;;;;19.38;13.43;;;-0.30;99.90;;;;;;5055632;28;20017;-72
2021/12/21 06:33:14;;;;;;;19.48;13.20;;;-0.30;99.90;;;;;;5055552;28;20021;-73
2021/12/21 06:35:40;;;;;;;25.40;15.15;;;-0.30;99.90;;;;;;5037514;28;20127;-73
2021/12/21 06:38:06;;;;;;;24.67;15.63;;;-0.30;99.90;;;;;;5055538;28;20028;-73
2021/12/21 06:40:33;;;;;;;23.77;15.95;;;-0.20;99.90;;;;;;5037581;28;20486;-72
2021/12/21 06:43:02;;;;;;;24.23;15.20;;;-0.30;99.90;;;;;;5056485;28;20032;-73
2021/12/21 06:45:46;;;;;;;27.60;15.90;;;-0.30;99.90;;;;;;5037764;28;20021;-74
2021/12/21 06:53:39;;;;;;;31.70;16.02;;;-0.40;99.90;;;;;;5056342;28;20566;-73
2021/12/21 06:56:07;;;;;;;27.25;16.42;;;-0.30;99.90;;;;;;5055981;28;20021;-73
2021/12/21 06:58:33;;;;;;;27.20;16.67;;;-0.30;99.90;;;;;;5056066;28;20032;-74
2021/12/21 07:00:59;;;;;;;28.85;17.13;;;-0.30;99.90;;;;;;5057145;28;20029;-73
2021/12/21 07:03:25;;;;;;;34.15;17.60;;;-0.30;99.90;;;;;;5056521;28;20120;-73
2021/12/21 07:05:52;;;;;;;33.75;17.15;;;-0.30;99.90;;;;;;5059335;28;20060;-73
2021/12/21 07:08:23;;;;;;;26.08;15.20;;;-0.40;99.90;;;;;;5059228;28;20052;-73
2021/12/21 07:11:18;;;;;;;26.77;15.60;;;-0.30;99.90;;;;;;5056924;28;20122;-73
2021/12/21 07:19:04;;;;;;;26.73;16.25;;;-0.40;99.90;;;;;;5055305;28;20028;-72
2021/12/21 07:21:30;;;;;;;26.70;16.88;;;-0.40;99.90;;;;;;5054961;28;20179;-72
2021/12/21 07:23:55;;;;;;;35.22;20.85;;;-0.40;99.90;;;;;;5054482;28;20061;-72
2021/12/21 07:26:21;;;;;;;33.08;21.05;;;-0.50;99.90;;;;;;5036140;28;20083;-74
2021/12/21 07:28:47;;;;;;;32.13;18.65;;;-0.50;99.90;;;;;;5054247;28;20059;-72
2021/12/21 07:31:12;;;;;;;29.55;18.20;;;-0.60;99.90;;;;;;5036376;28;20021;-74
2021/12/21 07:33:38;;;;;;;32.03;18.45;;;-0.60;99.90;;;;;;5068245;22;20092;-51
2021/12/21 07:36:04;;;;;;;30.10;16.83;;;-0.80;99.90;;;;;;5054515;28;20048;-53
2021/12/21 07:38:32;;;;;;;29.27;17.02;;;-0.90;99.90;;;;;;5039087;28;20025;-51
2021/12/21 07:40:58;;;;;;;30.40;18.13;;;-0.90;99.90;;;;;;5064531;28;20025;-51
2021/12/21 07:43:24;;;;;;;27.10;15.63;;;-1.00;99.90;;;;;;5054538;28;20032;-50
2021/12/21 07:45:50;;;;;;;25.67;15.00;;;-1.00;99.90;;;;;;5054160;28;20025;-49
2021/12/21 07:48:16;;;;;;;28.73;16.38;;;-1.00;99.90;;;;;;5054180;28;20512;-51
2021/12/21 07:50:42;;;;;;;30.40;16.23;;;-1.10;99.90;;;;;;5054210;28;20034;-48
2021/12/21 07:53:08;;;;;;;33.28;15.98;;;-1.20;99.90;;;;;;5054279;28;20390;-52
2021/12/21 07:55:33;;;;;;;33.05;14.82;;;-1.20;99.90;;;;;;5054116;28;20025;-53
2021/12/21 07:57:59;;;;;;;24.90;14.73;;;-1.20;99.90;;;;;;5054190;28;20090;-50
2021/12/21 08:00:25;;;;;;;24.05;13.95;;;-1.20;99.90;;;;;;5035956;28;20021;-54
2021/12/21 08:02:51;;;;;;;25.33;14.57;;;-1.20;99.90;;;;;;5053637;28;20501;-50
2021/12/21 08:05:17;;;;;;;21.35;14.98;;;-1.20;99.90;;;;;;5054012;28;20474;-54
2021/12/21 08:07:54;;;;;;;25.63;13.88;;;-1.20;99.90;;;;;;5054210;28;20033;-50
2021/12/21 08:10:29;;;;;;;27.15;14.45;;;-1.30;99.90;;;;;;5022974;28;20067;-51
2021/12/21 08:12:56;;;;;;;27.35;16.05;;;-1.20;99.90;;;;;;5054340;28;20032;-51
2021/12/21 08:15:23;;;;;;;27.00;15.38;;;-1.20;99.90;;;;;;5033543;28;20033;-52
2021/12/21 08:17:49;;;;;;;28.33;16.67;;;-1.20;99.90;;;;;;5032367;28;20119;-55
2021/12/21 08:20:16;;;;;;;27.85;15.23;;;-1.10;99.90;;;;;;5035203;28;20170;-55
2021/12/21 08:22:41;;;;;;;28.55;15.80;;;-1.10;99.90;;;;;;5027049;28;20025;-51
2021/12/21 08:25:08;;;;;;;30.30;16.02;;;-1.10;99.90;;;;;;5028171;28;20079;-54
2021/12/21 08:27:33;;;;;;;28.88;16.70;;;-1.10;99.90;;;;;;5027668;28;20088;-50
2021/12/21 08:29:59;;;;;;;31.05;17.45;;;-1.10;99.90;;;;;;5012073;28;20024;-51
2021/12/21 08:32:24;;;;;;;33.03;16.80;;;-1.10;99.90;;;;;;5036527;28;20107;-50
2021/12/21 08:34:50;;;;;;;36.10;18.40;;;-1.00;99.90;;;;;;5042500;28;20042;-52
2021/12/21 08:37:16;;;;;;;30.95;17.00;;;-1.00;99.90;;;;;;5027819;28;20029;-51
2021/12/21 08:39:42;;;;;;;34.15;17.73;;;-1.00;99.90;;;;;;5028005;28;20040;-49
2021/12/21 08:42:12;;;;;;;30.67;16.98;;;-1.00;99.90;;;;;;5043760;28;20037;-52
2021/12/21 08:44:38;;;;;;;31.87;18.13;;;-1.00;99.90;;;;;;5030573;28;20021;-53
2021/12/21 08:47:04;;;;;;;36.80;18.13;;;-1.00;99.90;;;;;;5027274;28;20261;-51
2021/12/21 08:49:30;;;;;;;35.40;17.33;;;-1.00;99.90;;;;;;5028151;28;20425;-54
2021/12/21 08:51:56;;;;;;;32.80;17.58;;;-1.00;99.90;;;;;;5029405;28;20029;-49
2021/12/21 08:54:22;;;;;;;37.30;18.58;;;-0.90;99.90;;;;;;5044625;28;20033;-50
2021/12/21 08:56:49;;;;;;;33.97;16.73;;;-0.90;99.90;;;;;;5040254;28;20432;-55
2021/12/21 08:59:16;;;;;;;36.20;17.73;;;-0.90;99.90;;;;;;5053454;28;20021;-51
2021/12/21 09:01:42;;;;;;;32.38;18.02;;;-0.90;99.90;;;;;;5052838;28;20389;-53
2021/12/21 09:04:08;;;;;;;32.80;17.35;;;-0.90;99.90;;;;;;5047062;28;20637;-51
2021/12/21 09:06:34;;;;;;;33.47;17.88;;;-0.90;99.90;;;;;;5053057;28;20017;-54
2021/12/21 09:09:00;;;;;;;39.83;18.98;;;-0.80;99.90;;;;;;5053058;28;20339;-53
2021/12/21 09:11:25;;;;;;;37.30;19.58;;;-0.80;99.90;;;;;;5052916;28;20386;-52
2021/12/21 09:13:51;;;;;;;38.20;20.08;;;-0.70;99.90;;;;;;5047159;28;20065;-51
2021/12/21 09:16:17;;;;;;;36.90;20.63;;;-0.70;99.90;;;;;;5050846;28;20493;-52
2021/12/21 09:18:44;;;;;;;34.10;17.73;;;-0.70;99.90;;;;;;5053193;28;20098;-50
2021/12/21 09:21:10;;;;;;;34.78;17.85;;;-0.60;99.90;;;;;;5053060;28;20025;-52
2021/12/21 09:23:36;;;;;;;42.50;18.88;;;-0.60;99.90;;;;;;5048508;28;20032;-51
2021/12/21 09:26:01;;;;;;;39.40;18.83;;;-0.70;99.90;;;;;;5053375;28;20382;-50
2021/12/21 09:28:27;;;;;;;37.03;18.65;;;-0.70;99.90;;;;;;5053186;28;20063;-51
2021/12/21 09:30:52;;;;;;;36.30;18.30;;;-0.70;99.90;;;;;;5045895;28;20029;-50
2021/12/21 09:33:18;;;;;;;40.85;19.77;;;-0.70;99.90;;;;;;5047875;28;20027;-52
2021/12/21 09:35:44;;;;;;;42.13;18.58;;;-0.70;99.90;;;;;;5053668;28;20504;-54
2021/12/21 09:38:10;;;;;;;30.38;18.23;;;-0.70;99.90;;;;;;5030853;28;20045;-51
2021/12/21 09:40:39;;;;;;;26.08;16.08;;;-0.60;99.90;;;;;;5039282;28;20021;-52
2021/12/21 09:43:10;;;;;;;22.35;13.95;;;-0.60;99.90;;;;;;5034892;28;20440;-51
2021/12/21 09:45:37;;;;;;;26.30;15.50;;;-0.70;99.90;;;;;;5053200;28;20025;-52
2021/12/21 09:48:03;;;;;;;29.60;15.38;;;-0.70;99.90;;;;;;5052338;28;20406;-53
2021/12/21 09:50:29;;;;;;;23.05;13.73;;;-0.70;99.90;;;;;;5035308;28;20482;-52
2021/12/21 09:52:57;;;;;;;28.67;16.58;;;-0.70;99.90;;;;;;5052514;28;20082;-50
2021/12/21 09:55:23;;;;;;;27.50;16.70;;;-0.80;99.90;;;;;;5052501;28;20530;-51
2021/12/21 09:57:50;;;;;;;30.10;15.05;;;-0.80;99.90;;;;;;5052372;28;20025;-53
2021/12/21 10:00:34;;;;;;;31.05;15.32;;;-0.80;99.90;;;;;;5055683;28;20057;-53
2021/12/21 10:03:05;;;;;;;25.27;14.23;;;-0.70;99.90;;;;;;5056396;28;20151;-52
2021/12/21 10:05:37;;;;;;;26.42;15.20;;;-0.80;99.90;;;;;;5056243;28;20481;-51
2021/12/21 10:08:13;;;;;;;24.83;13.80;;;-0.80;99.90;;;;;;5051766;28;20033;-50
2021/12/21 10:10:53;;;;;;;28.08;14.88;;;-0.70;99.90;;;;;;5014116;28;20603;-53
2021/12/21 10:13:22;;;;;;;27.98;14.80;;;-0.70;99.90;;;;;;5028651;28;20104;-53
2021/12/21 10:15:51;;;;;;;31.02;16.25;;;-0.70;99.90;;;;;;5027902;28;20453;-53
2021/12/21 10:18:42;;;;;;;31.33;16.63;;;-0.60;99.90;;;;;;5041324;28;20107;-55
2021/12/21 10:21:11;;;;;;;36.30;17.95;;;-0.60;99.90;;;;;;5036304;28;20036;-56
2021/12/21 10:23:41;;;;;;;35.42;16.40;;;-0.70;99.90;;;;;;5056074;28;20028;-55
2021/12/21 10:26:12;;;;;;;35.42;17.42;;;-0.60;99.90;;;;;;5053839;28;20025;-54
2021/12/21 10:28:44;;;;;;;40.15;17.52;;;-0.60;99.90;;;;;;5016889;28;20029;-56
2021/12/21 10:31:26;;;;;;;35.65;18.35;;;-0.50;99.90;;;;;;5052068;28;20496;-53
2021/12/21 10:33:53;;;;;;;34.65;17.50;;;-0.40;99.90;;;;;;5056094;28;20039;-52
2021/12/21 10:36:19;;;;;;;33.35;17.27;;;-0.40;99.90;;;;;;5038539;28;20029;-52
2021/12/21 10:38:52;;;;;;;36.00;18.33;;;-0.40;99.90;;;;;;5056208;28;20105;-53
2021/12/21 10:41:19;;;;;;;35.50;19.00;;;-0.30;99.90;;;;;;5056484;28;20158;-52
2021/12/21 10:43:58;;;;;;;34.72;18.33;;;-0.30;99.90;;;;;;5056758;28;20017;-55
2021/12/21 10:46:27;;;;;;;44.67;19.15;;;-0.20;99.90;;;;;;5056519;28;20025;-55
2021/12/21 10:49:03;;;;;;;39.83;20.35;;;-0.20;99.90;;;;;;5006291;28;20075;-55
2021/12/21 10:51:28;;;;;;;42.38;19.42;;;-0.10;99.90;;;;;;5038874;28;20021;-56
2021/12/21 10:53:54;;;;;;;42.95;19.30;;;0.00;99.90;;;;;;5057066;28;20029;-55
2021/12/21 10:56:19;;;;;;;43.75;19.48;;;0.10;99.90;;;;;;5056415;28;20036;-56
2021/12/21 10:58:45;;;;;;;36.83;18.35;;;0.10;99.90;;;;;;5055910;28;20112;-54
2021/12/21 11:01:15;;;;;;;36.83;19.42;;;0.20;99.90;;;;;;5055388;28;20470;-55
2021/12/21 11:03:50;;;;;;;30.73;17.33;;;0.30;99.90;;;;;;5037466;28;20021;-51
2021/12/21 11:06:18;;;;;;;38.10;18.67;;;0.30;99.90;;;;;;5051165;28;20029;-53
2021/12/21 11:08:47;;;;;;;40.00;18.52;;;0.30;99.90;;;;;;5036905;28;20050;-54
2021/12/21 11:11:32;;;;;;;32.97;18.88;;;0.40;99.90;;;;;;5054245;28;20389;-53
2021/12/21 11:14:12;;;;;;;35.22;18.40;;;0.50;99.90;;;;;;5039617;28;20040;-51
2021/12/21 11:16:42;;;;;;;33.50;17.88;;;0.60;99.90;;;;;;5025652;28;20060;-52
2021/12/21 11:19:09;;;;;;;33.30;18.73;;;0.60;99.90;;;;;;5054938;28;20029;-52
2021/12/21 11:21:35;;;;;;;37.15;19.55;;;0.60;99.90;;;;;;5055166;28;20075;-55
2021/12/21 11:24:04;;;;;;;43.40;20.38;;;0.70;99.90;;;;;;5037259;28;20367;-57
2021/12/21 11:26:31;;;;;;;39.15;19.55;;;0.70;99.90;;;;;;5023607;28;20127;-56
2021/12/21 11:29:09;;;;;;;41.95;21.45;;;0.80;99.90;;;;;;5049255;28;20040;-54
2021/12/21 11:31:47;;;;;;;42.53;20.50;;;0.90;99.90;;;;;;5032121;28;20355;-58
2021/12/21 11:34:18;;;;;;;35.72;19.48;;;0.90;99.90;;;;;;5054275;28;20071;-58
2021/12/21 11:39:36;;;;;;;37.67;18.85;;;1.00;99.90;;;;;;5055869;28;20040;-56
2021/12/21 11:42:04;;;;;;;33.58;19.15;;;1.00;99.90;;;;;;5055259;28;20032;-59
2021/12/21 11:44:54;;;;;;;35.45;18.83;;;1.10;99.90;;;;;;5023545;28;20074;-59
2021/12/21 11:47:31;;;;;;;33.63;17.23;;;1.20;99.90;;;;;;5044880;28;20022;-58
2021/12/21 11:50:01;;;;;;;30.65;17.42;;;1.30;99.90;;;;;;5029564;28;20033;-59
2021/12/21 11:52:28;;;;;;;38.90;18.38;;;1.40;99.90;;;;;;5024581;28;20051;-59
2021/12/21 11:55:04;;;;;;;33.88;19.95;;;1.40;99.90;;;;;;5045890;28;20104;-59
2021/12/21 11:57:41;;;;;;;37.10;19.52;;;1.50;99.90;;;;;;5056823;28;20029;-60
2021/12/21 12:00:09;;;;;;;37.22;18.83;;;1.50;99.90;;;;;;5056629;28;20029;-59
2021/12/21 12:02:35;;;;;;;31.85;18.17;;;1.60;99.90;;;;;;5056244;28;20025;-59
2021/12/21 12:05:01;;;;;;;36.35;18.65;;;1.60;99.90;;;;;;5056203;28;20037;-59
2021/12/21 12:07:27;;;;;;;30.73;16.98;;;1.60;99.90;;;;;;5056993;28;20048;-59
2021/12/21 12:10:11;;;;;;;30.98;18.05;;;1.60;99.90;;;;;;5056639;28;20025;-58
2021/12/21 12:12:37;;;;;;;37.72;19.23;;;1.70;99.90;;;;;;5008831;28;20059;-56
2021/12/21 12:15:05;;;;;;;35.33;18.25;;;1.70;99.90;;;;;;5036656;28;20116;-57
2021/12/21 12:17:31;;;;;;;35.10;20.00;;;1.70;99.90;;;;;;5054444;28;20036;-57
2021/12/21 12:20:05;;;;;;;33.05;18.23;;;1.80;99.90;;;;;;5054146;28;20041;-57
2021/12/21 12:22:37;;;;;;;28.10;17.20;;;1.80;99.90;;;;;;5022584;28;20017;-58
2021/12/21 12:25:08;;;;;;;33.00;18.13;;;1.90;99.90;;;;;;5045549;28;20024;-56
2021/12/21 12:27:43;;;;;;;32.42;16.17;;;2.00;99.90;;;;;;5047080;28;20029;-56
2021/12/21 12:30:12;;;;;;;31.25;15.38;;;2.00;99.90;;;;;;5054048;28;20083;-57
2021/12/21 12:32:52;;;;;;;31.20;15.82;;;2.00;99.90;;;;;;5035745;28;20028;-56
2021/12/21 12:35:21;;;;;;;29.48;15.55;;;2.20;99.90;;;;;;5053829;28;20048;-56
2021/12/21 12:38:19;;;;;;;30.63;15.68;;;2.20;99.90;;;;;;5036357;28;20029;-58
2021/12/21 12:40:52;;;;;;;29.23;13.93;;;2.20;99.90;;;;;;5024711;28;20494;-57
2021/12/21 12:43:24;;;;;;;23.85;13.43;;;2.20;99.90;;;;;;5031809;28;20503;-58
2021/12/21 12:45:54;;;;;;;26.15;14.90;;;2.20;99.90;;;;;;5007957;28;20026;-56
2021/12/21 12:48:22;;;;;;;27.17;15.88;;;2.20;99.90;;;;;;5014227;28;20373;-56
2021/12/21 12:50:50;;;;;;;25.50;15.32;;;2.20;99.90;;;;;;5044758;28;20057;-57
2021/12/21 12:53:16;;;;;;;25.95;14.77;;;2.30;99.90;;;;;;5053788;28;20078;-59
2021/12/21 12:55:50;;;;;;;27.02;15.05;;;2.30;99.90;;;;;;5047225;28;20064;-57
2021/12/21 12:58:22;;;;;;;28.95;15.10;;;2.30;99.90;;;;;;5033086;28;20071;-58
2021/12/21 13:01:18;;;;;;;26.33;15.35;;;2.30;99.90;;;;;;5034751;28;20029;-57
2021/12/21 13:03:44;;;;;;;24.88;14.52;;;2.30;99.90;;;;;;5027801;28;20074;-54
2021/12/21 13:06:18;;;;;;;25.20;13.85;;;2.30;99.90;;;;;;5044139;28;20025;-55
2021/12/21 13:08:45;;;;;;;30.00;14.43;;;2.20;99.90;;;;;;5033364;28;20025;-58
2021/12/21 13:11:12;;;;;;;27.33;15.57;;;2.20;99.90;;;;;;5033531;28;20032;-58
2021/12/21 13:13:41;;;;;;;28.25;15.52;;;2.30;99.90;;;;;;5015374;28;20026;-57
2021/12/21 13:16:13;;;;;;;27.42;16.08;;;2.30;99.90;;;;;;5018816;28;20037;-52
2021/12/21 13:18:41;;;;;;;28.35;16.40;;;2.30;99.90;;;;;;5043000;28;20021;-53
2021/12/21 13:21:22;;;;;;;26.40;16.50;;;2.20;99.90;;;;;;5039519;28;20061;-51
2021/12/21 13:23:51;;;;;;;30.27;17.13;;;2.30;99.90;;;;;;5037243;28;20044;-53
2021/12/21 13:26:18;;;;;;;37.40;18.80;;;2.30;99.90;;;;;;5037252;28;20398;-53
2021/12/21 13:28:53;;;;;;;26.90;17.60;;;2.30;99.90;;;;;;5031067;28;20096;-55
2021/12/21 13:31:21;;;;;;;31.33;17.60;;;2.30;99.90;;;;;;5044515;28;20381;-57
2021/12/21 13:33:55;;;;;;;29.58;16.25;;;2.30;99.90;;;;;;5057720;22;20460;-51
2021/12/21 13:36:45;;;;;;;27.55;16.77;;;2.30;99.90;;;;;;5048010;28;20034;-54
2021/12/21 13:39:30;;;;;;;31.63;17.52;;;2.30;99.90;;;;;;5053513;28;20057;-52